createdAt,value
2023-03-12T00:00:29.845Z,99456.88
2023-03-12T00:01:19.637Z,99461.03
2023-03-12T00:02:06.474Z,99458.97
2023-03-12T00:02:53.352Z,99454.59
2023-03-12T00:03:40.653Z,99465.41
2023-03-12T00:04:27.939Z,99460.37
2023-03-12T00:05:14.838Z,99463.03
2023-03-12T00:06:10.188Z,99465.00
2023-03-12T00:06:57.840Z,99466.94
2023-03-12T00:07:44.770Z,99475.75
2023-03-12T00:08:31.632Z,99465.81
2023-03-12T00:09:18.489Z,99471.03
2023-03-12T00:10:06.199Z,99471.44
2023-03-12T00:10:53.063Z,99477.00
2023-03-12T00:11:39.838Z,99473.63
2023-03-12T00:12:26.692Z,99478.78
2023-03-12T00:13:13.578Z,99478.34
2023-03-12T00:14:00.474Z,99477.34
2023-03-12T00:14:47.296Z,99487.75
2023-03-12T00:15:39.150Z,99479.75
2023-03-12T00:16:26.446Z,99480.34
2023-03-12T00:17:13.380Z,99483.97
2023-03-12T00:18:00.181Z,99485.06
2023-03-12T00:18:51.756Z,99480.72
2023-03-12T00:19:38.578Z,99491.34
2023-03-12T00:20:26.468Z,99486.03
2023-03-12T00:21:13.326Z,99484.25
2023-03-12T00:22:00.280Z,99482.13
2023-03-12T00:22:47.118Z,99484.25
2023-03-12T00:23:34.824Z,99484.50
2023-03-12T00:24:21.676Z,99493.41
2023-03-12T00:25:13.300Z,99490.31
2023-03-12T00:26:07.876Z,99487.16
2023-03-12T00:26:54.759Z,99486.62
2023-03-12T00:27:42.068Z,99487.03
2023-03-12T00:28:28.959Z,99488.38
2023-03-12T00:29:15.922Z,99489.25
2023-03-12T00:30:03.638Z,99488.56
2023-03-12T00:30:52.328Z,99485.16
2023-03-12T00:31:39.226Z,99479.56
2023-03-12T00:32:26.109Z,99487.34
2023-03-12T00:33:13.168Z,99481.84
2023-03-12T00:34:01.570Z,99491.03
2023-03-12T00:34:53.095Z,99485.41
2023-03-12T00:35:39.973Z,99482.44
2023-03-12T00:36:29.030Z,99483.44
2023-03-12T00:37:15.837Z,99477.44
2023-03-12T00:38:02.736Z,99477.03
2023-03-12T00:38:49.556Z,99479.16
2023-03-12T00:39:36.406Z,99478.28
2023-03-12T00:40:23.224Z,99476.22
2023-03-12T00:41:10.402Z,99473.53
2023-03-12T00:41:57.225Z,99475.47
2023-03-12T00:42:44.033Z,99484.72
2023-03-12T00:43:30.897Z,99473.72
2023-03-12T00:44:17.694Z,99481.88
2023-03-12T00:45:04.880Z,99477.25
2023-03-12T00:45:51.735Z,99485.09
2023-03-12T00:46:38.611Z,99483.69
2023-03-12T00:47:25.592Z,99477.13
2023-03-12T00:48:12.425Z,99477.78
2023-03-12T00:48:59.285Z,99478.25
2023-03-12T00:49:46.191Z,99480.06
2023-03-12T00:50:33.062Z,99480.59
2023-03-12T00:51:20.281Z,99474.75
2023-03-12T00:52:07.214Z,99478.66
2023-03-12T00:52:54.135Z,99476.75
2023-03-12T00:53:40.972Z,99475.69
2023-03-12T00:54:27.833Z,99475.91
2023-03-12T00:55:14.734Z,99475.53
2023-03-12T00:56:01.704Z,99483.91
2023-03-12T00:56:48.930Z,99488.38
2023-03-12T00:57:35.734Z,99483.37
2023-03-12T00:58:22.730Z,99483.50
2023-03-12T00:59:09.616Z,99489.69
2023-03-12T00:59:56.445Z,99489.09
2023-03-12T01:00:43.306Z,99487.97
2023-03-12T01:01:30.172Z,99490.75
2023-03-12T01:02:16.961Z,99486.94
2023-03-12T01:03:03.916Z,99492.66
2023-03-12T01:03:54.648Z,99492.13
2023-03-12T01:04:41.535Z,99492.34
2023-03-12T01:05:28.451Z,99493.28
2023-03-12T01:06:15.305Z,99490.75
2023-03-12T01:07:02.149Z,99492.56
2023-03-12T01:07:49.096Z,99500.34
2023-03-12T01:08:36.237Z,99499.38
2023-03-12T01:09:23.102Z,99507.16
2023-03-12T01:10:13.457Z,99501.41
2023-03-12T01:11:00.692Z,99500.91
2023-03-12T01:11:47.588Z,99505.44
2023-03-12T01:12:34.798Z,99497.59
2023-03-12T01:13:21.787Z,99502.47
2023-03-12T01:14:09.320Z,99504.63
2023-03-12T01:14:56.201Z,99498.81
2023-03-12T01:15:43.260Z,99495.22
2023-03-12T01:16:31.194Z,99495.84
2023-03-12T01:17:18.070Z,99500.03
2023-03-12T01:18:05.149Z,99495.34
2023-03-12T01:18:51.968Z,99492.56
2023-03-12T01:19:38.830Z,99493.62
2023-03-12T01:20:26.455Z,99497.81
2023-03-12T01:21:13.425Z,99497.09
2023-03-12T01:22:00.319Z,99492.16
2023-03-12T01:22:47.118Z,99495.78
2023-03-12T01:23:34.226Z,99496.66
2023-03-12T01:24:21.196Z,99496.75
2023-03-12T01:25:08.485Z,99497.94
2023-03-12T01:25:58.640Z,99489.25
2023-03-12T01:26:45.504Z,99495.16
2023-03-12T01:27:32.518Z,99500.50
2023-03-12T01:28:19.528Z,99492.94
2023-03-12T01:29:06.690Z,99496.31
2023-03-12T01:29:53.643Z,99498.50
2023-03-12T01:30:40.498Z,99501.97
2023-03-12T01:31:27.464Z,99498.03
2023-03-12T01:32:14.486Z,99501.19
2023-03-12T01:33:01.410Z,99501.91
2023-03-12T01:33:50.421Z,99507.53
2023-03-12T01:34:37.290Z,99505.03
2023-03-12T01:35:25.190Z,99504.78
2023-03-12T01:36:26.622Z,99503.69
2023-03-12T01:37:13.832Z,99515.50
2023-03-12T01:38:00.691Z,99510.56
2023-03-12T01:38:47.760Z,99505.25
2023-03-12T01:39:34.727Z,99511.28
2023-03-12T01:40:25.603Z,99506.72
2023-03-12T01:41:12.666Z,99509.38
2023-03-12T01:41:59.531Z,99516.22
2023-03-12T01:42:57.521Z,99510.81
2023-03-12T01:43:44.680Z,99514.78
2023-03-12T01:44:31.766Z,99514.66
2023-03-12T01:46:15.980Z,99510.09
2023-03-12T01:47:02.924Z,99515.50
2023-03-12T01:47:49.784Z,99516.84
2023-03-12T01:48:45.872Z,99517.78
2023-03-12T01:49:34.777Z,99520.44
2023-03-12T01:50:21.664Z,99519.00
2023-03-12T01:51:10.537Z,99517.69
2023-03-12T01:52:06.163Z,99520.81
2023-03-12T01:52:53.031Z,99521.41
2023-03-12T01:53:41.097Z,99522.03
2023-03-12T01:54:33.554Z,99521.41
2023-03-12T01:55:20.432Z,99522.59
2023-03-12T01:56:08.296Z,99518.38
2023-03-12T01:56:56.834Z,99524.06
2023-03-12T01:57:52.663Z,99527.56
2023-03-12T01:58:41.144Z,99526.72
2023-03-12T01:59:36.533Z,99526.81
2023-03-12T02:00:27.943Z,99524.91
2023-03-12T02:01:16.653Z,99527.06
2023-03-12T02:02:04.439Z,99526.25
2023-03-12T02:02:53.032Z,99530.09
2023-03-12T02:03:40.014Z,99528.37
2023-03-12T02:04:27.853Z,99527.09
2023-03-12T02:05:21.729Z,99536.09
2023-03-12T02:06:14.972Z,99528.75
2023-03-12T02:07:08.295Z,99530.69
2023-03-12T02:07:56.403Z,99528.87
2023-03-12T02:08:46.120Z,99530.09
2023-03-12T02:09:34.727Z,99529.59
2023-03-12T02:10:22.709Z,99529.84
2023-03-12T02:11:10.217Z,99532.03
2023-03-12T02:11:57.054Z,99534.78
2023-03-12T02:12:44.012Z,99538.25
2023-03-12T02:13:31.075Z,99534.63
2023-03-12T02:14:18.014Z,99538.47
2023-03-12T02:15:05.573Z,99539.34
2023-03-12T02:15:52.550Z,99544.88
2023-03-12T02:16:39.461Z,99550.97
2023-03-12T02:17:26.288Z,99548.72
2023-03-12T02:18:16.171Z,99550.16
2023-03-12T02:19:04.864Z,99547.97
2023-03-12T02:20:01.237Z,99546.69
2023-03-12T02:21:01.574Z,99554.97
2023-03-12T02:21:48.455Z,99553.31
2023-03-12T02:22:36.733Z,99554.88
2023-03-12T02:23:41.636Z,99558.63
2023-03-12T02:24:31.065Z,99553.41
2023-03-12T02:25:36.032Z,99560.13
2023-03-12T02:26:24.073Z,99560.03
2023-03-12T02:27:11.869Z,99564.84
2023-03-12T02:28:00.619Z,99562.03
2023-03-12T02:28:48.706Z,99558.06
2023-03-12T02:29:36.780Z,99564.31
2023-03-12T02:30:23.686Z,99562.28
2023-03-12T02:31:14.538Z,99565.66
2023-03-12T02:32:04.499Z,99560.97
2023-03-12T02:32:52.354Z,99570.19
2023-03-12T02:33:39.195Z,99570.22
2023-03-12T02:34:26.168Z,99565.47
2023-03-12T02:35:14.814Z,99576.72
2023-03-12T02:36:01.806Z,99573.22
2023-03-12T02:36:49.546Z,99577.91
2023-03-12T02:37:36.377Z,99578.53
2023-03-12T02:38:36.964Z,99575.59
2023-03-12T02:39:23.903Z,99577.13
2023-03-12T02:40:36.975Z,99580.53
2023-03-12T02:41:23.846Z,99586.41
2023-03-12T02:42:10.744Z,99584.28
2023-03-12T02:42:57.794Z,99589.53
2023-03-12T02:43:46.784Z,99599.66
2023-03-12T02:44:34.745Z,99588.25
2023-03-12T02:45:21.623Z,99596.47
2023-03-12T02:46:09.449Z,99590.72
2023-03-12T02:46:58.728Z,99586.88
2023-03-12T02:47:45.673Z,99579.44
2023-03-12T02:48:32.546Z,99587.41
2023-03-12T02:49:21.715Z,99592.50
2023-03-12T02:50:09.125Z,99585.34
2023-03-12T02:50:55.976Z,99584.84
2023-03-12T02:51:43.666Z,99587.13
2023-03-12T02:52:35.818Z,99587.84
2023-03-12T02:53:22.655Z,99585.81
2023-03-12T02:54:10.575Z,99579.09
2023-03-12T02:54:57.415Z,99584.81
2023-03-12T02:55:44.306Z,99589.66
2023-03-12T02:56:31.197Z,99584.44
2023-03-12T02:57:18.216Z,99587.94
2023-03-12T02:58:05.094Z,99591.63
2023-03-12T02:58:52.128Z,99581.63
2023-03-12T02:59:38.935Z,99582.31
2023-03-12T03:00:25.840Z,99586.19
2023-03-12T03:01:12.790Z,99585.62
2023-03-12T03:02:00.920Z,99585.62
2023-03-12T03:02:47.924Z,99586.28
2023-03-12T03:03:34.858Z,99583.88
2023-03-12T03:04:21.944Z,99586.72
2023-03-12T03:05:09.724Z,99584.56
2023-03-12T03:05:56.605Z,99588.50
2023-03-12T03:06:44.373Z,99588.75
2023-03-12T03:07:31.287Z,99587.53
2023-03-12T03:08:18.408Z,99589.91
2023-03-12T03:09:05.625Z,99582.66
2023-03-12T03:09:52.485Z,99595.00
2023-03-12T03:10:39.396Z,99591.94
2023-03-12T03:11:26.478Z,99597.00
2023-03-12T03:12:13.356Z,99598.25
2023-03-12T03:13:00.229Z,99591.00
2023-03-12T03:13:47.134Z,99600.84
2023-03-12T03:14:34.045Z,99608.09
2023-03-12T03:15:21.446Z,99612.66
2023-03-12T03:16:08.411Z,99604.94
2023-03-12T03:16:55.348Z,99610.00
2023-03-12T03:17:42.159Z,99601.56
2023-03-12T03:18:30.405Z,99606.16
2023-03-12T03:19:17.373Z,99605.03
2023-03-12T03:20:08.605Z,99594.63
2023-03-12T03:20:57.446Z,99604.84
2023-03-12T03:21:44.483Z,99604.75
2023-03-12T03:22:31.298Z,99605.16
2023-03-12T03:23:18.147Z,99608.84
2023-03-12T03:24:05.515Z,99609.09
2023-03-12T03:24:53.727Z,99606.13
2023-03-12T03:25:40.600Z,99610.97
2023-03-12T03:26:27.515Z,99610.97
2023-03-12T03:27:14.649Z,99612.44
2023-03-12T03:28:01.585Z,99606.53
2023-03-12T03:28:48.627Z,99609.81
2023-03-12T03:29:36.021Z,99609.50
2023-03-12T03:30:23.079Z,99613.97
2023-03-12T03:31:10.721Z,99614.16
2023-03-12T03:31:57.638Z,99613.09
2023-03-12T03:32:44.557Z,99611.53
2023-03-12T03:33:33.679Z,99614.59
2023-03-12T03:34:20.495Z,99617.28
2023-03-12T03:35:07.696Z,99617.69
2023-03-12T03:35:55.749Z,99622.53
2023-03-12T03:36:42.664Z,99626.03
2023-03-12T03:37:29.557Z,99625.91
2023-03-12T03:38:16.902Z,99637.47
2023-03-12T03:39:05.362Z,99639.97
2023-03-12T03:39:52.227Z,99640.63
2023-03-12T03:40:39.057Z,99633.84
2023-03-12T03:41:26.408Z,99634.81
2023-03-12T03:42:13.316Z,99637.47
2023-03-12T03:43:00.206Z,99635.47
2023-03-12T03:43:47.410Z,99634.69
2023-03-12T03:44:34.668Z,99629.75
2023-03-12T03:45:21.615Z,99637.25
2023-03-12T03:46:08.537Z,99635.03
2023-03-12T03:46:55.597Z,99635.03
2023-03-12T03:47:42.404Z,99636.31
2023-03-12T03:48:29.412Z,99635.19
2023-03-12T03:49:17.007Z,99641.84
2023-03-12T03:50:05.387Z,99641.31
2023-03-12T03:50:52.705Z,99642.06
2023-03-12T03:51:42.185Z,99647.22
2023-03-12T03:52:29.028Z,99635.78
2023-03-12T03:53:16.086Z,99636.84
2023-03-12T03:54:03.214Z,99638.22
2023-03-12T03:54:50.077Z,99643.22
2023-03-12T03:55:38.246Z,99651.56
2023-03-12T03:56:25.135Z,99646.38
2023-03-12T03:57:12.000Z,99647.66
2023-03-12T03:57:58.812Z,99650.16
2023-03-12T03:58:45.836Z,99651.22
2023-03-12T03:59:32.704Z,99645.78
2023-03-12T04:00:19.901Z,99646.06
2023-03-12T04:01:07.259Z,99648.94
2023-03-12T04:01:54.165Z,99663.84
2023-03-12T04:02:41.131Z,99662.34
2023-03-12T04:03:28.577Z,99650.94
2023-03-12T04:04:15.514Z,99647.44
2023-03-12T04:05:02.875Z,99648.28
2023-03-12T04:05:58.888Z,99650.94
2023-03-12T04:06:45.856Z,99657.81
2023-03-12T04:07:32.856Z,99657.19
2023-03-12T04:08:19.784Z,99658.34
2023-03-12T04:09:06.807Z,99652.31
2023-03-12T04:09:53.879Z,99651.50
2023-03-12T04:10:41.282Z,99659.84
2023-03-12T04:11:28.203Z,99646.81
2023-03-12T04:12:15.170Z,99638.38
2023-03-12T04:13:02.199Z,99647.38
2023-03-12T04:13:50.155Z,99641.22
2023-03-12T04:14:40.765Z,99642.81
2023-03-12T04:15:27.476Z,99650.63
2023-03-12T04:16:14.985Z,99658.56
2023-03-12T04:17:01.982Z,99662.56
2023-03-12T04:17:49.122Z,99659.84
2023-03-12T04:18:40.354Z,99654.41
2023-03-12T04:19:27.488Z,99666.44
2023-03-12T04:20:15.030Z,99664.03
2023-03-12T04:21:02.547Z,99663.31
2023-03-12T04:21:49.461Z,99663.53
2023-03-12T04:22:36.345Z,99659.69
2023-03-12T04:23:23.267Z,99673.06
2023-03-12T04:24:14.998Z,99667.25
2023-03-12T04:25:02.025Z,99661.19
2023-03-12T04:25:49.030Z,99668.81
2023-03-12T04:26:36.406Z,99666.88
2023-03-12T04:27:23.361Z,99664.66
2023-03-12T04:28:10.336Z,99666.16
2023-03-12T04:28:57.456Z,99676.97
2023-03-12T04:29:45.756Z,99677.62
2023-03-12T04:30:33.046Z,99679.22
2023-03-12T04:31:21.157Z,99681.28
2023-03-12T04:32:08.389Z,99694.56
2023-03-12T04:32:56.853Z,99687.81
2023-03-12T04:33:44.089Z,99690.75
2023-03-12T04:34:31.114Z,99688.72
2023-03-12T04:35:18.048Z,99687.72
2023-03-12T04:36:05.685Z,99686.94
2023-03-12T04:36:52.927Z,99696.34
2023-03-12T04:37:40.107Z,99692.56
2023-03-12T04:38:28.227Z,99692.66
2023-03-12T04:39:19.519Z,99698.16
2023-03-12T04:40:08.558Z,99693.91
2023-03-12T04:41:09.790Z,99698.72
2023-03-12T04:41:56.765Z,99693.31
2023-03-12T04:42:47.120Z,99704.59
2023-03-12T04:43:34.899Z,99703.56
2023-03-12T04:44:21.933Z,99702.81
2023-03-12T04:45:10.567Z,99702.78
2023-03-12T04:45:58.051Z,99705.38
2023-03-12T04:46:45.372Z,99702.03
2023-03-12T04:47:33.400Z,99702.88
2023-03-12T04:48:20.376Z,99703.31
2023-03-12T04:49:07.290Z,99701.50
2023-03-12T04:49:56.059Z,99701.34
2023-03-12T04:50:43.807Z,99706.22
2023-03-12T04:51:32.129Z,99706.81
2023-03-12T04:52:19.358Z,99710.09
2023-03-12T04:53:06.642Z,99708.25
2023-03-12T04:53:53.896Z,99712.03
2023-03-12T04:54:41.127Z,99715.41
2023-03-12T04:55:32.243Z,99711.50
2023-03-12T04:56:19.165Z,99713.84
2023-03-12T04:57:06.065Z,99713.66
2023-03-12T04:57:53.532Z,99712.69
2023-03-12T04:58:41.199Z,99717.03
2023-03-12T04:59:28.457Z,99712.25
2023-03-12T05:00:15.765Z,99712.25
2023-03-12T05:01:03.389Z,99711.00
2023-03-12T05:01:51.911Z,99717.31
2023-03-12T05:02:40.592Z,99721.78
2023-03-12T05:03:27.842Z,99717.91
2023-03-12T05:04:15.233Z,99717.25
2023-03-12T05:05:02.335Z,99723.91
2023-03-12T05:05:51.150Z,99722.84
2023-03-12T05:06:38.270Z,99724.53
2023-03-12T05:07:25.269Z,99716.50
2023-03-12T05:08:12.221Z,99718.41
2023-03-12T05:08:59.462Z,99724.44
2023-03-12T05:09:46.678Z,99721.25
2023-03-12T05:10:34.836Z,99715.38
2023-03-12T05:11:22.636Z,99723.50
2023-03-12T05:12:09.695Z,99723.12
2023-03-12T05:12:56.668Z,99726.44
2023-03-12T05:13:43.854Z,99721.53
2023-03-12T05:14:30.768Z,99731.78
2023-03-12T05:15:18.053Z,99731.34
2023-03-12T05:16:05.256Z,99732.91
2023-03-12T05:16:52.166Z,99730.81
2023-03-12T05:17:39.115Z,99737.03
2023-03-12T05:18:27.115Z,99732.69
2023-03-12T05:19:14.036Z,99737.13
2023-03-12T05:20:00.893Z,99741.87
2023-03-12T05:20:48.287Z,99737.72
2023-03-12T05:21:35.222Z,99745.88
2023-03-12T05:22:22.033Z,99746.16
2023-03-12T05:23:08.993Z,99737.31
2023-03-12T05:23:56.395Z,99745.94
2023-03-12T05:24:43.244Z,99744.81
2023-03-12T05:25:30.186Z,99751.78
2023-03-12T05:26:26.857Z,99749.47
2023-03-12T05:27:13.765Z,99752.09
2023-03-12T05:28:00.614Z,99757.53
2023-03-12T05:28:47.647Z,99759.28
2023-03-12T05:29:35.811Z,99764.69
2023-03-12T05:30:22.964Z,99764.72
2023-03-12T05:31:10.852Z,99760.81
2023-03-12T05:31:57.785Z,99775.62
2023-03-12T05:32:44.694Z,99769.59
2023-03-12T05:33:31.564Z,99775.66
2023-03-12T05:34:18.595Z,99769.56
2023-03-12T05:35:05.787Z,99780.00
2023-03-12T05:35:53.185Z,99780.91
2023-03-12T05:36:40.500Z,99775.62
2023-03-12T05:37:27.403Z,99774.16
2023-03-12T05:38:14.271Z,99777.88
2023-03-12T05:39:01.155Z,99777.34
2023-03-12T05:39:48.070Z,99776.50
2023-03-12T05:40:35.043Z,99776.72
2023-03-12T05:41:27.346Z,99779.69
2023-03-12T05:42:15.114Z,99778.94
2023-03-12T05:43:01.938Z,99776.72
2023-03-12T05:43:48.915Z,99773.88
2023-03-12T05:44:35.996Z,99788.72
2023-03-12T05:45:23.973Z,99787.78
2023-03-12T05:46:11.252Z,99782.41
2023-03-12T05:46:59.152Z,99783.38
2023-03-12T05:47:46.244Z,99780.13
2023-03-12T05:48:33.185Z,99786.38
2023-03-12T05:49:21.116Z,99793.59
2023-03-12T05:50:09.693Z,99792.84
2023-03-12T05:50:57.346Z,99789.00
2023-03-12T05:51:44.287Z,99794.31
2023-03-12T05:52:31.144Z,99786.22
2023-03-12T05:53:18.133Z,99793.41
2023-03-12T05:54:05.030Z,99792.34
2023-03-12T05:54:53.002Z,99798.00
2023-03-12T05:55:40.122Z,99793.25
2023-03-12T05:56:27.021Z,99793.06
2023-03-12T05:57:14.219Z,99792.97
2023-03-12T05:58:01.101Z,99794.03
2023-03-12T05:58:50.022Z,99799.97
2023-03-12T05:59:36.869Z,99794.72
2023-03-12T06:00:24.151Z,99795.25
2023-03-12T06:01:25.679Z,99798.66
2023-03-12T06:02:12.595Z,99796.13
2023-03-12T06:02:59.518Z,99795.56
2023-03-12T06:03:46.638Z,99797.50
2023-03-12T06:04:33.518Z,99795.50
2023-03-12T06:05:20.347Z,99792.63
2023-03-12T06:06:07.214Z,99793.28
2023-03-12T06:06:54.111Z,99800.16
2023-03-12T06:07:41.052Z,99797.66
2023-03-12T06:08:27.899Z,99801.22
2023-03-12T06:09:14.796Z,99800.06
2023-03-12T06:10:01.656Z,99799.53
2023-03-12T06:10:52.267Z,99803.84
2023-03-12T06:11:39.018Z,99802.91
2023-03-12T06:12:25.958Z,99802.66
2023-03-12T06:13:12.880Z,99803.22
2023-03-12T06:13:59.847Z,99808.00
2023-03-12T06:14:46.709Z,99799.75
2023-03-12T06:15:33.578Z,99803.97
2023-03-12T06:16:25.433Z,99801.25
2023-03-12T06:17:12.294Z,99808.25
2023-03-12T06:17:59.256Z,99808.34
2023-03-12T06:18:46.137Z,99807.09
2023-03-12T06:19:33.065Z,99813.22
2023-03-12T06:20:19.987Z,99809.09
2023-03-12T06:21:10.467Z,99809.75
2023-03-12T06:21:57.508Z,99815.97
2023-03-12T06:22:44.405Z,99808.78
2023-03-12T06:23:31.356Z,99815.03
2023-03-12T06:24:18.251Z,99812.06
2023-03-12T06:25:05.594Z,99817.13
2023-03-12T06:25:52.417Z,99817.78
2023-03-12T06:26:39.896Z,99818.28
2023-03-12T06:27:26.837Z,99818.28
2023-03-12T06:28:13.705Z,99817.87
2023-03-12T06:29:00.604Z,99818.84
2023-03-12T06:29:47.480Z,99821.16
2023-03-12T06:30:34.876Z,99813.53
2023-03-12T06:31:22.818Z,99819.44
2023-03-12T06:32:09.682Z,99824.63
2023-03-12T06:32:56.581Z,99826.75
2023-03-12T06:33:43.944Z,99826.31
2023-03-12T06:34:30.889Z,99830.56
2023-03-12T06:35:17.767Z,99822.38
2023-03-12T06:36:06.694Z,99832.03
2023-03-12T06:36:53.504Z,99824.81
2023-03-12T06:37:40.329Z,99828.09
2023-03-12T06:38:27.794Z,99837.44
2023-03-12T06:39:14.658Z,99840.19
2023-03-12T06:40:01.514Z,99832.78
2023-03-12T06:41:04.952Z,99836.69
2023-03-12T06:41:51.776Z,99838.50
2023-03-12T06:42:39.388Z,99843.47
2023-03-12T06:43:28.155Z,99844.88
2023-03-12T06:44:15.060Z,99849.19
2023-03-12T06:45:02.182Z,99845.16
2023-03-12T06:45:49.084Z,99845.25
2023-03-12T06:46:39.143Z,99842.91
2023-03-12T06:47:26.028Z,99843.59
2023-03-12T06:48:59.926Z,99846.25
2023-03-12T06:49:46.766Z,99844.88
2023-03-12T06:50:33.624Z,99852.16
2023-03-12T06:51:20.484Z,99850.03
2023-03-12T06:52:07.466Z,99854.88
2023-03-12T06:52:54.257Z,99853.28
2023-03-12T06:53:42.475Z,99858.06
2023-03-12T06:54:29.627Z,99852.66
2023-03-12T06:55:16.611Z,99853.12
2023-03-12T06:56:03.867Z,99854.50
2023-03-12T06:56:50.683Z,99845.81
2023-03-12T06:57:37.587Z,99848.53
2023-03-12T06:58:24.645Z,99855.28
2023-03-12T06:59:11.659Z,99853.53
2023-03-12T06:59:58.556Z,99858.75
2023-03-12T07:00:45.651Z,99864.47
2023-03-12T07:01:32.604Z,99857.72
2023-03-12T07:02:19.503Z,99861.50
2023-03-12T07:03:07.171Z,99860.06
2023-03-12T07:03:54.067Z,99861.91
2023-03-12T07:04:41.495Z,99862.63
2023-03-12T07:05:30.062Z,99858.41
2023-03-12T07:06:19.874Z,99859.75
2023-03-12T07:07:08.767Z,99862.78
2023-03-12T07:07:55.700Z,99860.62
2023-03-12T07:08:43.235Z,99861.13
2023-03-12T07:09:30.119Z,99859.06
2023-03-12T07:10:17.061Z,99855.56
2023-03-12T07:11:04.014Z,99858.72
2023-03-12T07:11:50.926Z,99854.84
2023-03-12T07:12:37.780Z,99865.22
2023-03-12T07:13:24.631Z,99862.06
2023-03-12T07:14:11.833Z,99860.75
2023-03-12T07:14:58.782Z,99863.78
2023-03-12T07:15:46.841Z,99860.62
2023-03-12T07:16:33.757Z,99864.47
2023-03-12T07:17:20.651Z,99860.75
2023-03-12T07:18:08.964Z,99854.34
2023-03-12T07:18:55.916Z,99863.75
2023-03-12T07:19:42.763Z,99862.28
2023-03-12T07:20:29.575Z,99869.03
2023-03-12T07:21:22.842Z,99868.31
2023-03-12T07:22:09.724Z,99863.59
2023-03-12T07:22:56.536Z,99860.47
2023-03-12T07:23:43.365Z,99870.22
2023-03-12T07:24:30.211Z,99867.28
2023-03-12T07:25:18.978Z,99861.09
2023-03-12T07:26:06.219Z,99866.38
2023-03-12T07:26:53.066Z,99861.63
2023-03-12T07:27:40.006Z,99868.78
2023-03-12T07:28:26.855Z,99874.09
2023-03-12T07:29:13.695Z,99868.28
2023-03-12T07:30:00.573Z,99872.72
2023-03-12T07:30:50.848Z,99873.34
2023-03-12T07:31:37.724Z,99872.66
2023-03-12T07:32:24.754Z,99874.91
2023-03-12T07:33:13.086Z,99875.31
2023-03-12T07:34:00.065Z,99878.69
2023-03-12T07:34:46.936Z,99875.19
2023-03-12T07:35:33.959Z,99877.38
2023-03-12T07:36:21.102Z,99879.69
2023-03-12T07:37:10.866Z,99876.75
2023-03-12T07:37:57.849Z,99867.31
2023-03-12T07:38:44.813Z,99872.97
2023-03-12T07:39:32.092Z,99875.56
2023-03-12T07:40:19.092Z,99874.09
2023-03-12T07:41:05.966Z,99878.75
2023-03-12T07:41:53.002Z,99876.78
2023-03-12T07:42:39.863Z,99871.94
2023-03-12T07:43:27.504Z,99873.50
2023-03-12T07:44:14.422Z,99877.31
2023-03-12T07:45:01.309Z,99875.50
2023-03-12T07:45:48.421Z,99881.41
2023-03-12T07:46:38.601Z,99873.00
2023-03-12T07:47:25.722Z,99880.69
2023-03-12T07:48:12.667Z,99877.47
2023-03-12T07:48:59.582Z,99874.91
2023-03-12T07:49:47.028Z,99871.84
2023-03-12T07:50:37.300Z,99878.78
2023-03-12T07:51:24.121Z,99875.53
2023-03-12T07:52:11.690Z,99875.84
2023-03-12T07:52:58.590Z,99870.81
2023-03-12T07:53:45.608Z,99874.22
2023-03-12T07:54:32.964Z,99874.66
2023-03-12T07:55:20.049Z,99870.87
2023-03-12T07:56:07.596Z,99875.06
2023-03-12T07:56:54.542Z,99878.13
2023-03-12T07:57:41.581Z,99878.44
2023-03-12T07:58:28.542Z,99873.13
2023-03-12T07:59:15.548Z,99870.56
2023-03-12T08:00:02.822Z,99878.16
2023-03-12T08:00:50.452Z,99871.72
2023-03-12T08:01:37.523Z,99866.84
2023-03-12T08:02:24.724Z,99871.06
2023-03-12T08:03:12.346Z,99863.50
2023-03-12T08:03:59.765Z,99869.69
2023-03-12T08:04:46.982Z,99864.78
2023-03-12T08:05:33.955Z,99873.19
2023-03-12T08:06:21.947Z,99872.03
2023-03-12T08:07:09.463Z,99872.47
2023-03-12T08:07:56.418Z,99865.38
2023-03-12T08:08:43.372Z,99861.88
2023-03-12T08:09:30.297Z,99858.50
2023-03-12T08:10:17.268Z,99868.47
2023-03-12T08:11:05.389Z,99868.34
2023-03-12T08:11:52.261Z,99858.78
2023-03-12T08:12:39.121Z,99868.91
2023-03-12T08:13:26.169Z,99872.41
2023-03-12T08:14:13.169Z,99870.28
2023-03-12T08:15:00.061Z,99869.19
2023-03-12T08:15:46.998Z,99869.75
2023-03-12T08:16:34.015Z,99869.75
2023-03-12T08:17:21.030Z,99871.72
2023-03-12T08:18:07.881Z,99872.41
2023-03-12T08:18:54.751Z,99869.34
2023-03-12T08:19:42.722Z,99868.09
2023-03-12T08:20:29.626Z,99872.16
2023-03-12T08:21:16.976Z,99871.75
2023-03-12T08:22:03.818Z,99874.31
2023-03-12T08:22:50.668Z,99877.13
2023-03-12T08:23:38.249Z,99873.72
2023-03-12T08:24:25.143Z,99866.16
2023-03-12T08:25:12.397Z,99869.41
2023-03-12T08:25:59.342Z,99875.59
2023-03-12T08:26:46.569Z,99872.50
2023-03-12T08:27:36.221Z,99864.63
2023-03-12T08:28:23.980Z,99873.78
2023-03-12T08:29:12.283Z,99872.78
2023-03-12T08:29:59.110Z,99875.88
2023-03-12T08:30:50.616Z,99885.56
2023-03-12T08:31:37.519Z,99882.62
2023-03-12T08:32:24.702Z,99885.13
2023-03-12T08:33:11.780Z,99889.06
2023-03-12T08:33:58.644Z,99884.44
2023-03-12T08:34:45.496Z,99880.09
2023-03-12T08:35:32.420Z,99874.88
2023-03-12T08:36:21.927Z,99878.53
2023-03-12T08:37:09.202Z,99882.75
2023-03-12T08:37:57.231Z,99877.28
2023-03-12T08:38:44.127Z,99881.50
2023-03-12T08:39:31.246Z,99886.44
2023-03-12T08:40:18.949Z,99880.34
2023-03-12T08:41:06.226Z,99883.34
2023-03-12T08:41:55.748Z,99888.81
2023-03-12T08:42:44.506Z,99892.31
2023-03-12T08:43:32.837Z,99892.03
2023-03-12T08:44:19.936Z,99886.41
2023-03-12T08:45:07.333Z,99887.94
2023-03-12T08:45:58.712Z,99904.69
2023-03-12T08:46:45.618Z,99894.41
2023-03-12T08:47:32.521Z,99897.78
2023-03-12T08:48:19.409Z,99894.84
2023-03-12T08:49:06.316Z,99893.25
2023-03-12T08:49:53.159Z,99898.47
2023-03-12T08:50:40.101Z,99894.53
2023-03-12T08:51:26.928Z,99888.78
2023-03-12T08:52:13.871Z,99894.41
2023-03-12T08:53:00.897Z,99902.81
2023-03-12T08:53:48.120Z,99901.28
2023-03-12T08:54:35.041Z,99894.78
2023-03-12T08:55:21.912Z,99898.31
2023-03-12T08:56:08.908Z,99905.34
2023-03-12T08:56:55.809Z,99907.59
2023-03-12T08:57:42.651Z,99896.63
2023-03-12T08:58:30.197Z,99907.72
2023-03-12T08:59:17.098Z,99902.25
2023-03-12T09:00:11.576Z,99903.66
2023-03-12T09:00:58.532Z,99898.31
2023-03-12T09:01:45.476Z,99899.81
2023-03-12T09:02:32.522Z,99897.28
2023-03-12T09:03:19.519Z,99902.37
2023-03-12T09:04:06.584Z,99905.16
2023-03-12T09:04:53.523Z,99899.94
2023-03-12T09:05:41.377Z,99895.00
2023-03-12T09:06:28.333Z,99905.81
2023-03-12T09:07:15.483Z,99899.63
2023-03-12T09:08:02.880Z,99895.81
2023-03-12T09:08:51.781Z,99904.41
2023-03-12T09:09:38.629Z,99897.06
2023-03-12T09:10:30.218Z,99897.00
2023-03-12T09:11:18.238Z,99896.56
2023-03-12T09:12:05.362Z,99900.63
2023-03-12T09:12:52.292Z,99893.84
2023-03-12T09:13:58.144Z,99908.75
2023-03-12T09:15:03.807Z,99903.75
2023-03-12T09:15:51.314Z,99898.97
2023-03-12T09:16:38.269Z,99906.53
2023-03-12T09:17:25.192Z,99907.47
2023-03-12T09:18:13.681Z,99911.25
2023-03-12T09:19:00.542Z,99910.16
2023-03-12T09:19:47.489Z,99910.41
2023-03-12T09:20:36.138Z,99910.41
2023-03-12T09:21:23.052Z,99919.78
2023-03-12T09:22:10.207Z,99910.50
2023-03-12T09:22:57.100Z,99910.28
2023-03-12T09:23:44.099Z,99912.94